Página principal
METAR-TAF:

METAR-TAF

Aeroportos :

Pequim, China

Aeroporto Internacional de Pequim-Capital

latitude: 39-56N, longitude: 116-17E, altura: 55 m

Observação actual do tempo

O boletim foi feito há 16 minutos, às 23:30 UTC
Vento 2 kt com direcção variável
Temperatura -5°C
Humidade 86%
Pressão 1027 hPa
Visibilidade: 4500 m
neblina

METAR: ZBAA 182330Z VRB01MPS 4500 BR NSC M05/M07 Q1027 NOSIG

Hora: 07:46 (23:46 UTC)

Previsão

O boletim foi feito há 2 horas e 16 minutos, às 21:30 UTC
Previsão válida de 19 às 00 UTC a 19 às 24 UTC
Vento 8 kt de es-sudeste
Visibilidade: 5000 m
neblina

TAF: ZBAA 182130Z 1900/1924 12004MPS 5000 BR NSC TX07/1906Z TNM05/21Z

Observações e previsões do tempo de mais de 4000 aeroportos (mensagens METAR e TAF).

As estações disponíveis são os pontos amarelos e vermelhos sobre o mapa.

Mova o rato sobre o mapa para ver o nome da estação.

Depois clique no ponto para visualizar as observações e previsões meteorológicas.

Para alterar o mapa : clique nos botões verdes com uma cruz preta para aumentar o zoom; no botão verde com uma pitada de zoom; ou nas setas verdes para mapas adjacentes.


METAR-TAF: